Погода Массагуетна неделю

Майо-Кеби, Чад

23 - 29 мая
  • 23мая
    Сегодня
    +30°
    +43°
    Практически безоблачно
    ВремяПогодаТемператураВлажностьДавлениеВетер, м/сВероятность осадков
    01:00Ясно и безоблачно+31°C14 %731 мм2.3 м/с2 %
    04:00Практически безоблачно+32°C23 %731 мм3.2 м/с2 %
    07:00Ясно и безоблачно+32°C35 %732 мм3.9 м/с2 %
    10:00Облачно с прояснениями+39°C28 %733 мм5.1 м/с2 %
    13:00Практически безоблачно+42°C22 %732 мм4.1 м/с2 %
    16:00Небольшая облачность+43°C19 %730 мм2.3 м/с6 %
    19:00Ясно и безоблачно+37°C31 %731 мм3.5 м/с6 %
    22:00Практически безоблачно+34°C34 %733 мм2.8 м/с2 %
  • 24мая
    Пятница
    +30°
    +44°
    Ясно и безоблачно
    ВремяПогодаТемператураВлажностьДавлениеВетер, м/сВероятность осадков
    01:00Небольшая облачность+33°C40 %732 мм2.7 м/с2 %
    04:00Ясно и безоблачно+31°C47 %732 мм2.9 м/с2 %
    07:00Ясно и безоблачно+32°C45 %733 мм3.2 м/с2 %
    10:00Ясно и безоблачно+39°C30 %734 мм4.0 м/с2 %
    13:00Ясно и безоблачно+42°C21 %732 мм1.4 м/с2 %
    16:00Ясно и безоблачно+43°C19 %730 мм3.4 м/с2 %
    19:00Ясно и безоблачно+38°C22 %730 мм2.3 м/с2 %
    22:00Ясно и безоблачно+33°C27 %732 мм1.9 м/с2 %
  • 25мая
    Суббота
    +30°
    +43°
    Практически безоблачно
    ВремяПогодаТемператураВлажностьДавлениеВетер, м/сВероятность осадков
    01:00Ясно и безоблачно+33°C37 %731 мм2.3 м/с2 %
    04:00Ясно и безоблачно+31°C41 %731 мм2.6 м/с2 %
    07:00Ясно и безоблачно+32°C40 %733 мм3.2 м/с2 %
    10:00Ясно и безоблачно+38°C32 %734 мм4.9 м/с2 %
    13:00Практически безоблачно+41°C23 %732 мм1.3 м/с2 %
    16:00Ясно и безоблачно+42°C19 %730 мм1.8 м/с2 %
    19:00Ясно и безоблачно+38°C19 %730 мм1.8 м/с2 %
    22:00Ясно и безоблачно+33°C24 %732 мм1.7 м/с2 %
  • 26мая
    Воскресенье
    +31°
    +43°
    Практически безоблачно
    ВремяПогодаТемператураВлажностьДавлениеВетер, м/сВероятность осадков
    01:00Ясно и безоблачно+34°C34 %732 мм4.3 м/с2 %
    04:00Ясно и безоблачно+32°C44 %732 мм3.6 м/с2 %
    07:00Ясно и безоблачно+32°C45 %733 мм3.6 м/с2 %
    10:00Ясно и безоблачно+39°C34 %734 мм4.6 м/с2 %
    13:00Практически безоблачно+42°C24 %732 мм2.2 м/с2 %
    16:00Практически безоблачно+43°C21 %731 мм0.8 м/с2 %
    19:00Ясно и безоблачно+38°C25 %731 мм1.4 м/с5 %
    22:00Ясно и безоблачно+34°C30 %733 мм1.9 м/с4 %
  • 27мая
    Понедельник
    +31°
    +45°
    Ясно и безоблачно
    ВремяПогодаТемператураВлажностьДавлениеВетер, м/сВероятность осадков
    01:00Ясно и безоблачно+34°C34 %732 мм3.6 м/с2 %
    04:00Ясно и безоблачно+32°C39 %732 мм4.0 м/с2 %
    07:00Ясно и безоблачно+32°C42 %733 мм4.0 м/с2 %
    10:00Ясно и безоблачно+39°C32 %734 мм4.3 м/с2 %
    13:00Ясно и безоблачно+43°C20 %732 мм0.5 м/с2 %
    16:00Практически безоблачно+44°C17 %730 мм2.5 м/с2 %
    19:00Ясно и безоблачно+38°C21 %730 мм2.0 м/с2 %
    22:00Ясно и безоблачно+34°C24 %732 мм2.2 м/с2 %
Мы используем cookies
Соглашаюсь